sensor_id;sensor_type;location;lat;lon;timestamp;pressure;altitude;pressure_sealevel;temperature;humidity
15272;BME280;7737;51.578;7.268;2023-05-19T00:01:16;102068.44;;;9.14;100.00
15272;BME280;7737;51.578;7.268;2023-05-19T00:03:50;102068.91;;;8.94;100.00
15272;BME280;7737;51.578;7.268;2023-05-19T00:06:21;102063.38;;;9.05;100.00
15272;BME280;7737;51.578;7.268;2023-05-19T00:08:49;102061.53;;;9.07;100.00
15272;BME280;7737;51.578;7.268;2023-05-19T00:11:19;102063.38;;;9.03;100.00
15272;BME280;7737;51.578;7.268;2023-05-19T00:13:46;102059.94;;;9.00;100.00
15272;BME280;7737;51.578;7.268;2023-05-19T00:16:15;102063.59;;;8.94;100.00
15272;BME280;7737;51.578;7.268;2023-05-19T00:18:42;102056.66;;;8.87;100.00
15272;BME280;7737;51.578;7.268;2023-05-19T00:21:08;102067.31;;;8.84;100.00
15272;BME280;7737;51.578;7.268;2023-05-19T00:23:35;102062.00;;;8.84;100.00
15272;BME280;7737;51.578;7.268;2023-05-19T00:26:01;102071.84;;;8.79;100.00
15272;BME280;7737;51.578;7.268;2023-05-19T00:28:29;102071.22;;;8.67;100.00
15272;BME280;7737;51.578;7.268;2023-05-19T00:30:55;102074.75;;;8.67;100.00
15272;BME280;7737;51.578;7.268;2023-05-19T00:33:22;102076.53;;;8.68;100.00
15272;BME280;7737;51.578;7.268;2023-05-19T00:35:48;102080.22;;;8.58;100.00
15272;BME280;7737;51.578;7.268;2023-05-19T00:38:15;102077.00;;;8.44;100.00
15272;BME280;7737;51.578;7.268;2023-05-19T00:40:42;102078.63;;;8.51;100.00
15272;BME280;7737;51.578;7.268;2023-05-19T00:43:08;102078.50;;;8.57;100.00
15272;BME280;7737;51.578;7.268;2023-05-19T00:45:36;102077.78;;;8.47;100.00
15272;BME280;7737;51.578;7.268;2023-05-19T00:48:02;102077.81;;;8.46;100.00
15272;BME280;7737;51.578;7.268;2023-05-19T00:50:29;102078.75;;;8.43;100.00
15272;BME280;7737;51.578;7.268;2023-05-19T00:52:56;102072.78;;;8.34;100.00
15272;BME280;7737;51.578;7.268;2023-05-19T00:55:25;102074.50;;;8.36;100.00
15272;BME280;7737;51.578;7.268;2023-05-19T00:57:54;102076.31;;;8.33;100.00
15272;BME280;7737;51.578;7.268;2023-05-19T01:00:21;102073.78;;;8.24;100.00
15272;BME280;7737;51.578;7.268;2023-05-19T01:02:50;102075.88;;;8.07;100.00
15272;BME280;7737;51.578;7.268;2023-05-19T01:05:16;102075.69;;;8.16;100.00
15272;BME280;7737;51.578;7.268;2023-05-19T01:07:43;102070.47;;;8.13;100.00
15272;BME280;7737;51.578;7.268;2023-05-19T01:10:11;102070.41;;;8.16;100.00
15272;BME280;7737;51.578;7.268;2023-05-19T01:12:38;102069.41;;;8.21;100.00
15272;BME280;7737;51.578;7.268;2023-05-19T01:15:06;102074.91;;;8.11;100.00
15272;BME280;7737;51.578;7.268;2023-05-19T01:17:38;102086.47;;;8.05;100.00
15272;BME280;7737;51.578;7.268;2023-05-19T01:20:14;102072.25;;;8.12;100.00
15272;BME280;7737;51.578;7.268;2023-05-19T01:23:01;102068.66;;;8.15;100.00
15272;BME280;7737;51.578;7.268;2023-05-19T01:25:58;102072.22;;;8.14;100.00
15272;BME280;7737;51.578;7.268;2023-05-19T01:31:22;102064.38;;;8.08;100.00
15272;BME280;7737;51.578;7.268;2023-05-19T01:33:52;102068.88;;;8.03;100.00
15272;BME280;7737;51.578;7.268;2023-05-19T01:36:21;102069.03;;;7.93;100.00
15272;BME280;7737;51.578;7.268;2023-05-19T01:38:50;102074.34;;;7.93;100.00
15272;BME280;7737;51.578;7.268;2023-05-19T01:41:18;102066.44;;;7.90;100.00
15272;BME280;7737;51.578;7.268;2023-05-19T01:43:46;102067.28;;;7.92;100.00
15272;BME280;7737;51.578;7.268;2023-05-19T01:46:13;102074.38;;;7.90;100.00
15272;BME280;7737;51.578;7.268;2023-05-19T01:48:42;102068.44;;;7.76;100.00
15272;BME280;7737;51.578;7.268;2023-05-19T01:51:09;102070.94;;;7.85;100.00
15272;BME280;7737;51.578;7.268;2023-05-19T01:53:35;102074.28;;;7.96;100.00
15272;BME280;7737;51.578;7.268;2023-05-19T01:56:02;102072.63;;;7.89;100.00
15272;BME280;7737;51.578;7.268;2023-05-19T01:58:35;102071.84;;;7.84;100.00
15272;BME280;7737;51.578;7.268;2023-05-19T02:01:08;102081.00;;;7.64;100.00
15272;BME280;7737;51.578;7.268;2023-05-19T02:03:56;102085.31;;;7.69;100.00
15272;BME280;7737;51.578;7.268;2023-05-19T02:06:34;102081.84;;;7.67;100.00
15272;BME280;7737;51.578;7.268;2023-05-19T02:09:10;102078.28;;;7.70;100.00
15272;BME280;7737;51.578;7.268;2023-05-19T02:11:42;102081.72;;;7.73;100.00
15272;BME280;7737;51.578;7.268;2023-05-19T02:14:15;102095.81;;;7.75;100.00
15272;BME280;7737;51.578;7.268;2023-05-19T02:16:44;102090.66;;;7.66;100.00
15272;BME280;7737;51.578;7.268;2023-05-19T02:19:21;102086.41;;;7.55;100.00
15272;BME280;7737;51.578;7.268;2023-05-19T02:21:47;102085.00;;;7.32;100.00
15272;BME280;7737;51.578;7.268;2023-05-19T02:24:14;102091.88;;;7.46;100.00
15272;BME280;7737;51.578;7.268;2023-05-19T02:26:41;102086.38;;;7.58;100.00
15272;BME280;7737;51.578;7.268;2023-05-19T02:29:08;102098.03;;;7.46;100.00
15272;BME280;7737;51.578;7.268;2023-05-19T02:31:34;102091.84;;;7.47;100.00
15272;BME280;7737;51.578;7.268;2023-05-19T02:34:00;102090.91;;;7.51;100.00
15272;BME280;7737;51.578;7.268;2023-05-19T02:36:30;102085.81;;;7.36;100.00
15272;BME280;7737;51.578;7.268;2023-05-19T02:38:58;102098.97;;;7.42;100.00
15272;BME280;7737;51.578;7.268;2023-05-19T02:41:26;102091.19;;;7.33;100.00
15272;BME280;7737;51.578;7.268;2023-05-19T02:43:52;102086.78;;;7.32;100.00
15272;BME280;7737;51.578;7.268;2023-05-19T02:46:19;102086.88;;;7.24;100.00
15272;BME280;7737;51.578;7.268;2023-05-19T02:48:45;102081.47;;;7.32;100.00
15272;BME280;7737;51.578;7.268;2023-05-19T02:51:12;102086.00;;;7.24;100.00
15272;BME280;7737;51.578;7.268;2023-05-19T02:53:40;102076.31;;;7.23;100.00
15272;BME280;7737;51.578;7.268;2023-05-19T02:56:06;102080.81;;;7.15;100.00
15272;BME280;7737;51.578;7.268;2023-05-19T02:58:32;102078.28;;;7.09;100.00
15272;BME280;7737;51.578;7.268;2023-05-19T03:00:59;102075.63;;;7.12;100.00
15272;BME280;7737;51.578;7.268;2023-05-19T03:03:26;102065.84;;;7.17;100.00
15272;BME280;7737;51.578;7.268;2023-05-19T03:05:53;102059.81;;;7.06;100.00
15272;BME280;7737;51.578;7.268;2023-05-19T03:08:19;102070.50;;;6.98;100.00
15272;BME280;7737;51.578;7.268;2023-05-19T03:10:47;102072.31;;;6.95;100.00
15272;BME280;7737;51.578;7.268;2023-05-19T03:13:14;102073.88;;;7.08;100.00
15272;BME280;7737;51.578;7.268;2023-05-19T03:15:41;102069.56;;;7.04;100.00
15272;BME280;7737;51.578;7.268;2023-05-19T03:18:07;102074.13;;;6.90;100.00
15272;BME280;7737;51.578;7.268;2023-05-19T03:20:34;102067.19;;;6.83;100.00
15272;BME280;7737;51.578;7.268;2023-05-19T03:23:00;102069.81;;;6.83;100.00
15272;BME280;7737;51.578;7.268;2023-05-19T03:25:27;102076.03;;;6.79;100.00
15272;BME280;7737;51.578;7.268;2023-05-19T03:27:55;102081.50;;;6.63;100.00
15272;BME280;7737;51.578;7.268;2023-05-19T03:30:21;102080.34;;;6.87;100.00
15272;BME280;7737;51.578;7.268;2023-05-19T03:32:48;102083.81;;;6.91;100.00
15272;BME280;7737;51.578;7.268;2023-05-19T03:35:16;102083.03;;;6.83;100.00
15272;BME280;7737;51.578;7.268;2023-05-19T03:37:42;102086.63;;;6.77;100.00
15272;BME280;7737;51.578;7.268;2023-05-19T03:40:09;102076.88;;;6.82;100.00
15272;BME280;7737;51.578;7.268;2023-05-19T03:42:36;102084.88;;;6.78;100.00
15272;BME280;7737;51.578;7.268;2023-05-19T03:45:05;102082.22;;;6.78;100.00
15272;BME280;7737;51.578;7.268;2023-05-19T03:47:31;102079.72;;;6.65;100.00
15272;BME280;7737;51.578;7.268;2023-05-19T03:49:58;102081.19;;;6.91;100.00
15272;BME280;7737;51.578;7.268;2023-05-19T03:52:25;102075.06;;;6.84;100.00
15272;BME280;7737;51.578;7.268;2023-05-19T03:54:52;102081.97;;;6.97;100.00
15272;BME280;7737;51.578;7.268;2023-05-19T03:57:18;102082.91;;;6.93;100.00
15272;BME280;7737;51.578;7.268;2023-05-19T03:59:45;102082.13;;;6.84;100.00
15272;BME280;7737;51.578;7.268;2023-05-19T04:02:13;102084.72;;;6.90;100.00
15272;BME280;7737;51.578;7.268;2023-05-19T04:04:39;102086.63;;;6.75;100.00
15272;BME280;7737;51.578;7.268;2023-05-19T04:07:06;102082.19;;;6.79;100.00
15272;BME280;7737;51.578;7.268;2023-05-19T04:09:32;102086.63;;;6.75;100.00
15272;BME280;7737;51.578;7.268;2023-05-19T04:11:59;102091.91;;;6.75;100.00
15272;BME280;7737;51.578;7.268;2023-05-19T04:14:26;102089.19;;;6.83;100.00
15272;BME280;7737;51.578;7.268;2023-05-19T04:16:53;102088.28;;;6.86;100.00
15272;BME280;7737;51.578;7.268;2023-05-19T04:19:21;102085.56;;;6.93;100.00
15272;BME280;7737;51.578;7.268;2023-05-19T04:21:48;102091.06;;;6.73;100.00
15272;BME280;7737;51.578;7.268;2023-05-19T04:24:14;102092.69;;;6.85;100.00
15272;BME280;7737;51.578;7.268;2023-05-19T04:26:41;102095.25;;;6.93;100.00
15272;BME280;7737;51.578;7.268;2023-05-19T04:29:10;102098.78;;;6.92;100.00
15272;BME280;7737;51.578;7.268;2023-05-19T04:31:38;102101.13;;;7.14;100.00
15272;BME280;7737;51.578;7.268;2023-05-19T04:34:05;102092.31;;;7.14;100.00
15272;BME280;7737;51.578;7.268;2023-05-19T04:36:33;102094.63;;;7.38;100.00
15272;BME280;7737;51.578;7.268;2023-05-19T04:38:59;102092.06;;;7.32;100.00
15272;BME280;7737;51.578;7.268;2023-05-19T04:41:30;102091.06;;;7.41;100.00
15272;BME280;7737;51.578;7.268;2023-05-19T04:43:58;102098.03;;;7.46;100.00
15272;BME280;7737;51.578;7.268;2023-05-19T04:46:25;102094.56;;;7.43;100.00
15272;BME280;7737;51.578;7.268;2023-05-19T04:48:54;102086.41;;;7.56;100.00
15272;BME280;7737;51.578;7.268;2023-05-19T04:51:21;102097.59;;;7.73;100.00
15272;BME280;7737;51.578;7.268;2023-05-19T04:53:53;102092.50;;;7.61;100.00
15272;BME280;7737;51.578;7.268;2023-05-19T04:56:20;102094.94;;;7.73;100.00
15272;BME280;7737;51.578;7.268;2023-05-19T04:58:46;102091.16;;;7.89;100.00
15272;BME280;7737;51.578;7.268;2023-05-19T05:01:13;102087.63;;;7.90;100.00
15272;BME280;7737;51.578;7.268;2023-05-19T05:03:40;102087.50;;;7.98;100.00
15272;BME280;7737;51.578;7.268;2023-05-19T05:06:06;102089.03;;;8.13;100.00
15272;BME280;7737;51.578;7.268;2023-05-19T05:08:33;102089.78;;;8.19;100.00
15272;BME280;7737;51.578;7.268;2023-05-19T05:11:03;102080.97;;;8.17;100.00
15272;BME280;7737;51.578;7.268;2023-05-19T05:13:30;102085.13;;;8.33;100.00
15272;BME280;7737;51.578;7.268;2023-05-19T05:15:57;102084.25;;;8.33;100.00
15272;BME280;7737;51.578;7.268;2023-05-19T05:18:24;102080.56;;;8.41;100.00
15272;BME280;7737;51.578;7.268;2023-05-19T05:20:52;102094.50;;;8.51;100.00
15272;BME280;7737;51.578;7.268;2023-05-19T05:23:19;102079.16;;;8.68;100.00
15272;BME280;7737;51.578;7.268;2023-05-19T05:25:46;102085.31;;;8.70;100.00
15272;BME280;7737;51.578;7.268;2023-05-19T05:28:14;102077.16;;;8.79;100.00
15272;BME280;7737;51.578;7.268;2023-05-19T05:30:40;102077.81;;;8.90;100.00
15272;BME280;7737;51.578;7.268;2023-05-19T05:33:08;102080.06;;;9.08;100.00
15272;BME280;7737;51.578;7.268;2023-05-19T05:35:34;102078.19;;;9.13;100.00
15272;BME280;7737;51.578;7.268;2023-05-19T05:38:01;102068.44;;;9.15;100.00
15272;BME280;7737;51.578;7.268;2023-05-19T05:40:27;102073.53;;;9.25;100.00
15272;BME280;7737;51.578;7.268;2023-05-19T05:42:55;102065.31;;;9.35;100.00
15272;BME280;7737;51.578;7.268;2023-05-19T05:45:24;102059.81;;;9.44;100.00
15272;BME280;7737;51.578;7.268;2023-05-19T05:47:51;102059.56;;;9.53;100.00
15272;BME280;7737;51.578;7.268;2023-05-19T05:50:19;102061.91;;;9.67;100.00
15272;BME280;7737;51.578;7.268;2023-05-19T05:52:46;102059.38;;;9.62;100.00
15272;BME280;7737;51.578;7.268;2023-05-19T05:55:14;102046.72;;;9.73;100.00
15272;BME280;7737;51.578;7.268;2023-05-19T05:57:41;102044.94;;;9.72;100.00
15272;BME280;7737;51.578;7.268;2023-05-19T06:00:08;102042.28;;;9.74;100.00
15272;BME280;7737;51.578;7.268;2023-05-19T06:02:41;102042.03;;;9.83;100.00
15272;BME280;7737;51.578;7.268;2023-05-19T06:05:08;102039.97;;;9.94;100.00
15272;BME280;7737;51.578;7.268;2023-05-19T06:07:36;102032.72;;;10.01;100.00
15272;BME280;7737;51.578;7.268;2023-05-19T06:10:04;102029.19;;;10.00;100.00
15272;BME280;7737;51.578;7.268;2023-05-19T06:12:31;102030.47;;;10.19;100.00
15272;BME280;7737;51.578;7.268;2023-05-19T06:14:57;102023.50;;;10.15;100.00
15272;BME280;7737;51.578;7.268;2023-05-19T06:17:24;102022.66;;;10.12;100.00
15272;BME280;7737;51.578;7.268;2023-05-19T06:19:52;102016.28;;;10.51;100.00
15272;BME280;7737;51.578;7.268;2023-05-19T06:22:19;102011.44;;;10.67;100.00
15272;BME280;7737;51.578;7.268;2023-05-19T06:24:45;102012.06;;;10.75;100.00
15272;BME280;7737;51.578;7.268;2023-05-19T06:27:12;102003.97;;;10.78;100.00
15272;BME280;7737;51.578;7.268;2023-05-19T06:29:39;102005.22;;;10.66;100.00
15272;BME280;7737;51.578;7.268;2023-05-19T06:32:05;102007.75;;;10.71;100.00
15272;BME280;7737;51.578;7.268;2023-05-19T06:34:32;101996.53;;;10.90;100.00
15272;BME280;7737;51.578;7.268;2023-05-19T06:37:00;102005.81;;;11.05;100.00
15272;BME280;7737;51.578;7.268;2023-05-19T06:39:27;101995.25;;;11.02;100.00
15272;BME280;7737;51.578;7.268;2023-05-19T06:41:53;101999.38;;;11.12;100.00
15272;BME280;7737;51.578;7.268;2023-05-19T06:44:21;101995.13;;;11.34;100.00
15272;BME280;7737;51.578;7.268;2023-05-19T06:46:47;101995.03;;;11.37;100.00
15272;BME280;7737;51.578;7.268;2023-05-19T06:49:14;101995.47;;;11.51;100.00
15272;BME280;7737;51.578;7.268;2023-05-19T06:51:40;101988.53;;;11.46;100.00
15272;BME280;7737;51.578;7.268;2023-05-19T06:54:08;101987.59;;;11.75;100.00
15272;BME280;7737;51.578;7.268;2023-05-19T06:56:37;101983.31;;;11.95;100.00
15272;BME280;7737;51.578;7.268;2023-05-19T06:59:03;101978.50;;;12.05;100.00
15272;BME280;7737;51.578;7.268;2023-05-19T07:01:30;101971.19;;;12.11;100.00
15272;BME280;7737;51.578;7.268;2023-05-19T07:03:56;101972.47;;;12.25;100.00
15272;BME280;7737;51.578;7.268;2023-05-19T07:06:23;101966.34;;;12.23;100.00
15272;BME280;7737;51.578;7.268;2023-05-19T07:08:50;101968.03;;;12.48;100.00
15272;BME280;7737;51.578;7.268;2023-05-19T07:11:18;101964.75;;;12.65;100.00
15272;BME280;7737;51.578;7.268;2023-05-19T07:13:44;101958.41;;;12.67;100.00
15272;BME280;7737;51.578;7.268;2023-05-19T07:16:11;101957.66;;;12.64;100.00
15272;BME280;7737;51.578;7.268;2023-05-19T07:18:37;101956.41;;;12.96;100.00
15272;BME280;7737;51.578;7.268;2023-05-19T07:21:04;101943.28;;;12.90;100.00
15272;BME280;7737;51.578;7.268;2023-05-19T07:23:31;101941.22;;;12.74;100.00
15272;BME280;7737;51.578;7.268;2023-05-19T07:25:58;101935.53;;;13.07;100.00
15272;BME280;7737;51.578;7.268;2023-05-19T07:28:25;101930.88;;;13.33;100.00
15272;BME280;7737;51.578;7.268;2023-05-19T07:30:52;101910.91;;;13.42;100.00
15272;BME280;7737;51.578;7.268;2023-05-19T07:33:18;101894.03;;;13.41;100.00
15272;BME280;7737;51.578;7.268;2023-05-19T07:35:45;101903.97;;;13.58;100.00
15272;BME280;7737;51.578;7.268;2023-05-19T07:38:12;101923.81;;;13.73;100.00
15272;BME280;7737;51.578;7.268;2023-05-19T07:40:39;101919.94;;;14.00;100.00
15272;BME280;7737;51.578;7.268;2023-05-19T07:43:05;101903.28;;;13.93;100.00
15272;BME280;7737;51.578;7.268;2023-05-19T07:45:33;101896.09;;;13.75;100.00
15272;BME280;7737;51.578;7.268;2023-05-19T07:48:00;101896.47;;;14.07;100.00
15272;BME280;7737;51.578;7.268;2023-05-19T07:50:27;101902.34;;;14.15;100.00
15272;BME280;7737;51.578;7.268;2023-05-19T07:52:53;101898.16;;;14.28;100.00
15272;BME280;7737;51.578;7.268;2023-05-19T07:55:20;101891.50;;;14.18;100.00
15272;BME280;7737;51.578;7.268;2023-05-19T07:57:47;101869.69;;;14.27;100.00
15272;BME280;7737;51.578;7.268;2023-05-19T08:00:14;101855.84;;;14.56;100.00
15272;BME280;7737;51.578;7.268;2023-05-19T08:02:43;101835.28;;;14.38;100.00
15272;BME280;7737;51.578;7.268;2023-05-19T08:05:10;101838.59;;;14.61;100.00
15272;BME280;7737;51.578;7.268;2023-05-19T08:07:36;101822.47;;;14.63;100.00
15272;BME280;7737;51.578;7.268;2023-05-19T08:10:03;101814.16;;;14.69;100.00
15272;BME280;7737;51.578;7.268;2023-05-19T08:12:30;101815.31;;;14.99;100.00
15272;BME280;7737;51.578;7.268;2023-05-19T08:14:57;101796.78;;;15.12;100.00
15272;BME280;7737;51.578;7.268;2023-05-19T08:17:23;101802.25;;;15.10;100.00
15272;BME280;7737;51.578;7.268;2023-05-19T08:19:51;101798.78;;;15.08;100.00
15272;BME280;7737;51.578;7.268;2023-05-19T08:22:18;101796.34;;;15.21;100.00
15272;BME280;7737;51.578;7.268;2023-05-19T08:24:45;101771.50;;;15.17;100.00
15272;BME280;7737;51.578;7.268;2023-05-19T08:27:14;101778.69;;;15.34;100.00
15272;BME280;7737;51.578;7.268;2023-05-19T08:29:40;101788.41;;;15.54;100.00
15272;BME280;7737;51.578;7.268;2023-05-19T08:32:07;101768.13;;;15.81;100.00
15272;BME280;7737;51.578;7.268;2023-05-19T08:34:34;101791.44;;;15.96;100.00
15272;BME280;7737;51.578;7.268;2023-05-19T08:37:02;101755.69;;;15.80;99.63
15272;BME280;7737;51.578;7.268;2023-05-19T08:39:29;101735.34;;;15.76;97.28
15272;BME280;7737;51.578;7.268;2023-05-19T08:41:58;101748.75;;;15.92;98.09
15272;BME280;7737;51.578;7.268;2023-05-19T08:44:25;101780.53;;;15.99;100.00
15272;BME280;7737;51.578;7.268;2023-05-19T08:46:53;101761.34;;;16.22;98.90
15272;BME280;7737;51.578;7.268;2023-05-19T08:49:22;101741.09;;;16.32;97.89
15272;BME280;7737;51.578;7.268;2023-05-19T08:51:55;101738.47;;;16.31;97.14
15272;BME280;7737;51.578;7.268;2023-05-19T08:54:29;101712.44;;;16.17;94.23
15272;BME280;7737;51.578;7.268;2023-05-19T08:56:59;101698.16;;;16.17;90.74
15272;BME280;7737;51.578;7.268;2023-05-19T08:59:26;101690.16;;;16.31;89.71
15272;BME280;7737;51.578;7.268;2023-05-19T09:01:54;101705.75;;;16.56;93.89
15272;BME280;7737;51.578;7.268;2023-05-19T09:04:21;101661.53;;;16.16;87.63
15272;BME280;7737;51.578;7.268;2023-05-19T09:06:49;101677.31;;;16.06;88.83
15272;BME280;7737;51.578;7.268;2023-05-19T09:09:17;101687.75;;;16.26;90.71
15272;BME280;7737;51.578;7.268;2023-05-19T09:11:47;101674.19;;;15.98;89.22
15272;BME280;7737;51.578;7.268;2023-05-19T09:14:16;101650.63;;;16.19;86.64
15272;BME280;7737;51.578;7.268;2023-05-19T09:16:44;101615.19;;;16.43;82.20
15272;BME280;7737;51.578;7.268;2023-05-19T09:19:16;101656.38;;;16.58;85.58
15272;BME280;7737;51.578;7.268;2023-05-19T09:21:44;101646.97;;;16.35;83.96
15272;BME280;7737;51.578;7.268;2023-05-19T09:24:11;101625.63;;;16.64;82.08
15272;BME280;7737;51.578;7.268;2023-05-19T09:26:39;101628.06;;;16.82;81.89
15272;BME280;7737;51.578;7.268;2023-05-19T09:29:15;101627.28;;;16.51;82.13
15272;BME280;7737;51.578;7.268;2023-05-19T09:31:47;101640.63;;;16.82;83.25
15272;BME280;7737;51.578;7.268;2023-05-19T09:34:14;101629.53;;;17.30;82.79
15272;BME280;7737;51.578;7.268;2023-05-19T09:36:41;101594.78;;;16.85;80.22
15272;BME280;7737;51.578;7.268;2023-05-19T09:39:14;101586.75;;;16.99;78.99
15272;BME280;7737;51.578;7.268;2023-05-19T09:41:41;101575.59;;;16.77;77.08
15272;BME280;7737;51.578;7.268;2023-05-19T09:44:12;101584.22;;;17.38;77.04
15272;BME280;7737;51.578;7.268;2023-05-19T09:46:46;101560.00;;;17.52;75.81
15272;BME280;7737;51.578;7.268;2023-05-19T09:49:18;101583.31;;;17.66;77.41
15272;BME280;7737;51.578;7.268;2023-05-19T09:51:44;101591.00;;;17.99;78.88
15272;BME280;7737;51.578;7.268;2023-05-19T09:54:13;101594.13;;;18.32;78.13
15272;BME280;7737;51.578;7.268;2023-05-19T09:56:40;101560.75;;;18.35;75.96
15272;BME280;7737;51.578;7.268;2023-05-19T09:59:07;101538.72;;;18.03;73.08
15272;BME280;7737;51.578;7.268;2023-05-19T10:01:35;101538.34;;;18.34;73.83
15272;BME280;7737;51.578;7.268;2023-05-19T10:04:05;101533.22;;;18.94;72.72
15272;BME280;7737;51.578;7.268;2023-05-19T10:06:32;101540.19;;;18.46;73.71
15272;BME280;7737;51.578;7.268;2023-05-19T10:09:00;101537.66;;;18.57;73.11
15272;BME280;7737;51.578;7.268;2023-05-19T10:11:29;101545.81;;;19.06;75.43
15272;BME280;7737;51.578;7.268;2023-05-19T10:13:56;101506.72;;;18.75;71.70
15272;BME280;7737;51.578;7.268;2023-05-19T10:16:25;101489.34;;;18.42;69.80
15272;BME280;7737;51.578;7.268;2023-05-19T10:18:55;101511.59;;;19.32;70.34
15272;BME280;7737;51.578;7.268;2023-05-19T10:21:22;101481.38;;;18.91;68.57
15272;BME280;7737;51.578;7.268;2023-05-19T10:23:49;101491.16;;;19.04;69.25
15272;BME280;7737;51.578;7.268;2023-05-19T10:26:15;101471.69;;;18.75;67.96
15272;BME280;7737;51.578;7.268;2023-05-19T10:28:44;101443.75;;;19.25;66.24
15272;BME280;7737;51.578;7.268;2023-05-19T10:31:15;101478.50;;;19.30;68.02
15272;BME280;7737;51.578;7.268;2023-05-19T10:33:59;101515.44;;;19.77;70.77
15272;BME280;7737;51.578;7.268;2023-05-19T10:36:43;101491.13;;;20.24;68.56
15272;BME280;7737;51.578;7.268;2023-05-19T10:39:16;101459.09;;;19.96;66.10
15272;BME280;7737;51.578;7.268;2023-05-19T10:41:47;101424.84;;;20.42;63.15
15272;BME280;7737;51.578;7.268;2023-05-19T10:44:29;101421.03;;;20.45;63.88
15272;BME280;7737;51.578;7.268;2023-05-19T10:46:59;101452.06;;;19.82;65.23
15272;BME280;7737;51.578;7.268;2023-05-19T10:49:27;101429.06;;;20.23;64.21
15272;BME280;7737;51.578;7.268;2023-05-19T10:51:54;101454.94;;;20.82;66.44
15272;BME280;7737;51.578;7.268;2023-05-19T10:54:40;101426.69;;;20.42;64.01
15272;BME280;7737;51.578;7.268;2023-05-19T10:57:07;101445.59;;;20.07;63.77
15272;BME280;7737;51.578;7.268;2023-05-19T10:59:35;101432.16;;;19.83;62.83
15272;BME280;7737;51.578;7.268;2023-05-19T11:02:04;101419.19;;;20.90;62.19
15272;BME280;7737;51.578;7.268;2023-05-19T11:04:48;101398.56;;;20.67;61.42
15272;BME280;7737;51.578;7.268;2023-05-19T11:07:17;101383.69;;;20.83;60.77
15272;BME280;7737;51.578;7.268;2023-05-19T11:09:48;101380.63;;;20.54;59.90
15272;BME280;7737;51.578;7.268;2023-05-19T11:12:19;101406.28;;;20.82;61.85
15272;BME280;7737;51.578;7.268;2023-05-19T11:14:46;101396.41;;;21.03;60.09
15272;BME280;7737;51.578;7.268;2023-05-19T11:17:13;101407.88;;;21.18;60.45
15272;BME280;7737;51.578;7.268;2023-05-19T11:19:52;101405.19;;;20.62;60.27
15272;BME280;7737;51.578;7.268;2023-05-19T11:22:22;101343.47;;;20.36;56.47
15272;BME280;7737;51.578;7.268;2023-05-19T11:24:49;101384.66;;;20.82;59.90
15272;BME280;7737;51.578;7.268;2023-05-19T11:27:24;101411.06;;;20.79;60.81
15272;BME280;7737;51.578;7.268;2023-05-19T11:29:50;101376.78;;;21.01;58.58
15272;BME280;7737;51.578;7.268;2023-05-19T11:32:19;101378.03;;;20.31;58.33
15272;BME280;7737;51.578;7.268;2023-05-19T11:34:46;101358.88;;;21.32;57.64
15272;BME280;7737;51.578;7.268;2023-05-19T11:37:15;101369.16;;;21.06;58.50
15272;BME280;7737;51.578;7.268;2023-05-19T11:39:41;101340.25;;;20.53;56.78
15272;BME280;7737;51.578;7.268;2023-05-19T11:42:09;101414.16;;;20.96;61.20
15272;BME280;7737;51.578;7.268;2023-05-19T11:44:36;101346.97;;;20.81;57.25
15272;BME280;7737;51.578;7.268;2023-05-19T11:47:03;101393.97;;;21.22;59.17
15272;BME280;7737;51.578;7.268;2023-05-19T11:49:30;101372.28;;;21.34;57.94
15272;BME280;7737;51.578;7.268;2023-05-19T11:51:58;101379.34;;;21.46;57.78
15272;BME280;7737;51.578;7.268;2023-05-19T11:54:30;101361.31;;;21.35;57.38
15272;BME280;7737;51.578;7.268;2023-05-19T11:56:59;101324.66;;;20.56;55.53
15272;BME280;7737;51.578;7.268;2023-05-19T11:59:30;101362.44;;;21.33;57.48
15272;BME280;7737;51.578;7.268;2023-05-19T12:02:00;101359.28;;;21.16;57.34
15272;BME280;7737;51.578;7.268;2023-05-19T12:04:29;101376.25;;;22.33;56.32
15272;BME280;7737;51.578;7.268;2023-05-19T12:06:55;101394.75;;;21.66;56.92
15272;BME280;7737;51.578;7.268;2023-05-19T12:09:22;101368.91;;;20.98;54.84
15272;BME280;7737;51.578;7.268;2023-05-19T12:11:51;101381.13;;;21.36;55.95
15272;BME280;7737;51.578;7.268;2023-05-19T12:14:18;101385.34;;;21.81;55.76
15272;BME280;7737;51.578;7.268;2023-05-19T12:16:44;101379.94;;;21.81;56.18
15272;BME280;7737;51.578;7.268;2023-05-19T12:19:11;101348.25;;;21.08;53.94
15272;BME280;7737;51.578;7.268;2023-05-19T12:21:38;101394.41;;;21.39;56.05
15272;BME280;7737;51.578;7.268;2023-05-19T12:24:05;101369.81;;;21.62;55.12
15272;BME280;7737;51.578;7.268;2023-05-19T12:26:32;101398.72;;;21.82;56.72
15272;BME280;7737;51.578;7.268;2023-05-19T12:29:00;101365.53;;;21.28;53.42
15272;BME280;7737;51.578;7.268;2023-05-19T12:31:26;101370.38;;;21.66;54.65
15272;BME280;7737;51.578;7.268;2023-05-19T12:33:54;101369.75;;;22.15;55.30
15272;BME280;7737;51.578;7.268;2023-05-19T12:36:22;101341.47;;;21.46;52.99
15272;BME280;7737;51.578;7.268;2023-05-19T12:41:19;101337.63;;;21.28;52.43
15272;BME280;7737;51.578;7.268;2023-05-19T12:43:45;101346.28;;;22.95;53.97
15272;BME280;7737;51.578;7.268;2023-05-19T12:46:13;101321.94;;;22.04;52.06
15272;BME280;7737;51.578;7.268;2023-05-19T12:48:42;101332.28;;;22.20;52.27
15272;BME280;7737;51.578;7.268;2023-05-19T12:51:08;101344.97;;;22.50;53.32
15272;BME280;7737;51.578;7.268;2023-05-19T12:53:35;101324.56;;;21.74;52.25
15272;BME280;7737;51.578;7.268;2023-05-19T12:56:10;101304.03;;;22.13;50.41
15272;BME280;7737;51.578;7.268;2023-05-19T12:58:36;101295.84;;;21.82;49.60
15272;BME280;7737;51.578;7.268;2023-05-19T13:01:04;101323.22;;;22.70;51.84
15272;BME280;7737;51.578;7.268;2023-05-19T13:03:38;101305.19;;;22.60;50.43
15272;BME280;7737;51.578;7.268;2023-05-19T13:06:06;101316.69;;;22.42;51.40
15272;BME280;7737;51.578;7.268;2023-05-19T13:08:33;101314.81;;;21.62;50.21